createdAt,value
2023-05-25T08:12:07.655Z,233.4072
2023-05-25T08:14:01.648Z,209.0400
2023-05-25T08:14:01.648Z,218.2500
2023-05-25T08:14:59.551Z,221.7636
2023-05-25T08:15:53.610Z,224.5250
2023-05-25T08:16:56.505Z,250.5538
2023-05-25T08:17:58.794Z,236.9692
2023-05-25T08:19:01.331Z,226.3539
2023-05-25T08:20:03.953Z,222.6308
2023-05-25T08:21:06.495Z,234.3615
2023-05-25T08:22:09.086Z,223.8846
2023-05-25T08:23:11.641Z,212.2538
2023-05-25T08:24:14.220Z,230.1154
2023-05-25T08:25:16.787Z,244.6077
2023-05-25T08:26:37.855Z,236.3231
2023-05-25T08:27:22.964Z,252.6077
2023-05-25T08:28:24.537Z,250.7538
2023-05-25T08:29:27.097Z,233.0769
2023-05-25T08:30:29.687Z,243.8077
2023-05-25T08:31:32.319Z,256.5538
2023-05-25T08:32:34.970Z,271.4308
2023-05-25T08:33:37.422Z,284.4154
2023-05-25T08:34:39.983Z,288.2462
2023-05-25T08:35:42.726Z,321.1923
2023-05-25T08:36:45.149Z,332.1846
2023-05-25T08:37:47.755Z,349.9461
2023-05-25T08:38:50.281Z,330.0538
2023-05-25T08:39:52.884Z,324.2308
2023-05-25T08:40:55.432Z,347.8231
2023-05-25T08:41:58.030Z,327.6538
2023-05-25T08:43:00.624Z,345.0538
2023-05-25T08:44:03.187Z,324.9923
2023-05-25T08:45:05.755Z,303.6077
2023-05-25T08:46:08.345Z,297.0846
2023-05-25T08:47:10.895Z,299.1000
2023-05-25T08:48:13.938Z,284.0923
2023-05-25T08:49:16.111Z,272.4615
2023-05-25T08:50:18.698Z,282.3000
2023-05-25T08:51:21.225Z,266.1000
2023-05-25T08:52:23.834Z,272.1461
2023-05-25T08:53:26.373Z,270.0846
2023-05-25T08:54:28.974Z,270.1077
2023-05-25T08:55:31.527Z,266.7308
2023-05-25T08:56:35.761Z,287.4539
2023-05-25T08:57:36.689Z,285.9308
2023-05-25T08:58:39.320Z,273.4154
2023-05-25T08:59:41.825Z,261.4923
2023-05-25T09:00:44.598Z,248.3615
2023-05-25T09:01:47.027Z,247.7077
2023-05-25T09:02:49.625Z,253.9692
2023-05-25T09:03:52.231Z,243.9462
2023-05-25T09:04:54.723Z,250.4385
2023-05-25T09:05:57.292Z,250.9462
2023-05-25T09:07:09.645Z,283.1385
2023-05-25T09:08:03.445Z,272.1000
2023-05-25T09:09:05.046Z,259.8846
2023-05-25T09:10:07.611Z,261.1615
2023-05-25T09:11:10.254Z,269.0000
2023-05-25T09:12:12.746Z,275.2000
2023-05-25T09:13:21.384Z,294.3923
2023-05-25T09:14:18.954Z,288.8000
2023-05-25T09:15:20.497Z,279.2385
2023-05-25T09:16:23.073Z,282.6308
2023-05-25T09:17:25.655Z,277.4384
2023-05-25T09:18:28.258Z,304.2385
2023-05-25T09:19:31.000Z,305.2000
2023-05-25T09:20:33.449Z,301.5385
2023-05-25T09:21:35.968Z,289.6692
2023-05-25T09:22:38.524Z,307.9692
2023-05-25T09:23:41.105Z,356.3154
2023-05-25T09:24:43.697Z,389.3000
2023-05-25T09:25:46.269Z,397.2692
2023-05-25T09:26:48.907Z,355.2538
2023-05-25T09:27:51.428Z,353.7462
2023-05-25T09:28:53.985Z,347.1461
2023-05-25T09:29:56.591Z,331.6538
2023-05-25T09:30:59.148Z,350.1385
2023-05-25T09:32:01.788Z,366.5385
2023-05-25T09:33:04.364Z,359.6308
2023-05-25T09:34:06.891Z,352.2615
2023-05-25T09:35:09.495Z,385.6692
2023-05-25T09:36:12.058Z,402.8385
2023-05-25T09:37:14.785Z,405.6538
2023-05-25T09:38:17.490Z,355.8539
2023-05-25T09:39:19.901Z,349.9308
2023-05-25T09:40:22.375Z,359.7000
2023-05-25T09:41:25.010Z,346.2538
2023-05-25T09:42:27.496Z,333.3308
2023-05-25T09:43:41.938Z,346.3539
2023-05-25T09:44:33.697Z,338.3923
2023-05-25T09:45:37.419Z,341.9154
2023-05-25T09:46:37.820Z,337.0923
2023-05-25T09:47:40.357Z,327.2692
2023-05-25T09:48:42.950Z,317.7308
2023-05-25T09:49:45.494Z,319.1231
2023-05-25T09:50:49.731Z,320.5538
2023-05-25T09:51:50.669Z,299.5923
2023-05-25T09:52:53.252Z,302.0615
2023-05-25T09:53:55.789Z,315.1769
2023-05-25T09:54:58.374Z,326.2231
2023-05-25T09:56:01.947Z,310.4923
2023-05-25T09:57:03.536Z,301.8077
2023-05-25T09:58:06.091Z,301.1461
2023-05-25T09:59:08.786Z,293.1769
2023-05-25T10:00:11.456Z,279.6769
2023-05-25T10:01:14.330Z,275.1385
2023-05-25T10:02:16.749Z,270.9462
2023-05-25T10:03:19.284Z,263.5000
2023-05-25T10:04:21.909Z,259.9077
2023-05-25T10:05:24.419Z,256.0385
2023-05-25T10:06:27.562Z,247.5538
2023-05-25T10:07:29.369Z,244.2615
2023-05-25T10:08:32.442Z,246.9077
2023-05-25T10:09:34.623Z,260.9000
2023-05-25T10:10:37.002Z,251.5000
2023-05-25T10:11:39.623Z,239.0769
2023-05-25T10:12:42.150Z,242.8385
2023-05-25T10:13:44.751Z,235.3231
2023-05-25T10:14:47.294Z,235.8231
2023-05-25T10:15:49.937Z,226.8154
2023-05-25T10:16:52.485Z,233.2000
2023-05-25T10:17:55.053Z,226.0538
2023-05-25T10:18:58.617Z,218.8539
2023-05-25T10:20:00.320Z,218.2692
2023-05-25T10:21:03.354Z,216.8539
2023-05-25T10:22:05.358Z,224.2308
2023-05-25T10:23:07.914Z,243.4462
2023-05-25T10:24:10.496Z,243.8308
2023-05-25T10:25:13.087Z,242.2385
2023-05-25T10:26:15.643Z,239.0231
2023-05-25T10:27:26.417Z,234.5462
2023-05-25T10:28:21.788Z,224.1077
2023-05-25T10:29:23.349Z,218.6923
2023-05-25T10:30:25.946Z,215.7154
2023-05-25T10:31:28.788Z,208.5846
2023-05-25T10:32:31.111Z,209.0231
2023-05-25T10:33:33.667Z,207.2000
2023-05-25T10:34:36.246Z,196.9923
2023-05-25T10:35:42.492Z,198.5154
2023-05-25T10:36:42.406Z,199.7846
2023-05-25T10:37:43.977Z,197.6385
2023-05-25T10:38:46.550Z,198.9000
2023-05-25T10:39:49.101Z,192.6538
2023-05-25T10:40:51.757Z,186.6461
2023-05-25T10:41:54.268Z,185.0308
2023-05-25T10:42:56.868Z,184.3231
2023-05-25T10:43:59.490Z,187.2154
2023-05-25T10:45:02.020Z,183.5000
2023-05-25T10:46:04.573Z,179.0923
2023-05-25T10:47:07.195Z,181.6461
2023-05-25T10:48:09.810Z,184.4769
2023-05-25T10:49:12.316Z,187.5077
2023-05-25T10:50:14.907Z,183.1000
2023-05-25T10:51:17.467Z,186.2538
2023-05-25T10:52:20.044Z,185.9308
2023-05-25T10:53:22.650Z,180.9154
2023-05-25T10:54:25.192Z,178.7231
2023-05-25T10:55:27.768Z,178.7154
2023-05-25T10:56:30.330Z,190.3615
2023-05-25T10:57:32.922Z,192.3846
2023-05-25T10:58:35.517Z,188.2615
2023-05-25T10:59:38.070Z,189.1154
2023-05-25T11:00:40.707Z,180.2769
2023-05-25T11:01:43.331Z,182.2231
2023-05-25T11:02:45.799Z,177.7154
2023-05-25T11:03:48.587Z,181.9077
2023-05-25T11:04:50.972Z,236.9231
2023-05-25T11:05:53.519Z,237.0000
2023-05-25T11:06:56.079Z,237.6538
2023-05-25T11:07:58.669Z,220.7846
2023-05-25T11:09:01.529Z,221.8539
2023-05-25T11:10:03.814Z,217.0692
2023-05-25T11:11:06.378Z,201.9462
2023-05-25T11:12:08.994Z,186.8000
2023-05-25T11:13:11.525Z,183.9385
2023-05-25T11:14:14.198Z,184.1308
2023-05-25T11:15:16.787Z,211.1461
2023-05-25T11:16:19.304Z,226.4231
2023-05-25T11:17:21.942Z,210.4538
2023-05-25T11:18:24.406Z,186.0615
2023-05-25T11:19:26.998Z,190.9462
2023-05-25T11:20:29.640Z,235.8077
2023-05-25T11:21:32.125Z,273.8846
2023-05-25T11:22:34.710Z,270.0769
2023-05-25T11:23:37.268Z,221.9462
2023-05-25T11:24:39.879Z,211.2615
2023-05-25T11:25:42.634Z,233.4385
2023-05-25T11:26:45.026Z,226.7154
2023-05-25T11:27:47.574Z,213.2154
2023-05-25T11:28:50.160Z,198.2308
2023-05-25T11:29:52.750Z,188.5538
2023-05-25T11:30:55.325Z,214.1385
2023-05-25T11:31:57.883Z,268.2077
2023-05-25T11:33:00.485Z,257.4077
2023-05-25T11:34:03.037Z,247.0615
2023-05-25T11:35:05.654Z,245.0000
2023-05-25T11:36:08.196Z,226.3462
2023-05-25T11:37:12.306Z,206.6077
2023-05-25T11:38:13.327Z,193.4692
2023-05-25T11:39:22.368Z,188.3615
2023-05-25T11:40:19.504Z,190.4231
2023-05-25T11:41:21.060Z,177.5923
2023-05-25T11:42:23.612Z,175.2231
2023-05-25T11:43:26.210Z,169.8846
2023-05-25T11:44:28.771Z,215.1923
2023-05-25T11:45:31.367Z,246.5846
2023-05-25T11:46:33.991Z,238.6154
2023-05-25T11:47:38.056Z,248.6615
2023-05-25T11:48:39.046Z,377.9231
2023-05-25T11:49:41.658Z,332.8692
2023-05-25T11:50:44.432Z,310.8154
2023-05-25T11:51:46.792Z,289.2077
2023-05-25T11:52:49.345Z,267.6461
2023-05-25T11:53:51.941Z,269.3308
2023-05-25T11:54:54.509Z,245.6308
2023-05-25T11:56:07.034Z,221.0538
2023-05-25T11:57:00.636Z,205.4615
2023-05-25T11:58:02.253Z,198.1154
2023-05-25T11:59:04.798Z,180.6385
2023-05-25T12:00:07.384Z,168.6000
2023-05-25T12:01:09.967Z,168.2000
2023-05-25T12:02:12.548Z,168.0000
2023-05-25T12:03:15.182Z,189.9615
2023-05-25T12:04:17.819Z,186.8000
2023-05-25T12:05:20.305Z,185.8231
2023-05-25T12:06:22.883Z,176.4077
2023-05-25T12:07:25.429Z,167.9000
2023-05-25T12:08:27.994Z,159.7692
2023-05-25T12:09:30.562Z,161.9231
2023-05-25T12:10:33.134Z,166.4231
2023-05-25T12:11:35.733Z,164.3462
2023-05-25T12:12:38.299Z,183.2769
2023-05-25T12:13:40.883Z,225.7769
2023-05-25T12:14:43.446Z,227.7000
2023-05-25T12:15:46.123Z,202.0385
2023-05-25T12:16:48.678Z,187.6000
2023-05-25T12:17:51.271Z,168.2769
2023-05-25T12:18:53.833Z,168.3846
2023-05-25T12:19:56.401Z,163.8385
2023-05-25T12:20:59.038Z,158.6846
2023-05-25T12:22:01.563Z,153.9615
2023-05-25T12:23:04.125Z,153.4538
2023-05-25T12:24:06.694Z,147.5846
2023-05-25T12:25:09.268Z,149.0077
2023-05-25T12:26:11.848Z,145.4000
2023-05-25T12:27:14.437Z,148.4308
2023-05-25T12:28:17.023Z,148.0462
2023-05-25T12:29:19.575Z,145.8308
2023-05-25T12:30:22.148Z,145.6000
2023-05-25T12:31:24.840Z,143.9077
2023-05-25T12:32:27.334Z,144.8077
2023-05-25T12:33:29.870Z,141.3077
2023-05-25T12:34:32.472Z,144.7923
2023-05-25T12:35:35.043Z,143.6692
2023-05-25T12:36:37.613Z,143.0154
2023-05-25T12:37:40.193Z,141.8692
2023-05-25T12:38:42.771Z,145.6538
2023-05-25T12:39:45.321Z,139.3615
2023-05-25T12:40:48.098Z,142.0846
2023-05-25T12:41:51.807Z,141.5462
2023-05-25T12:42:53.080Z,147.9846
2023-05-25T12:43:55.624Z,154.1000
2023-05-25T12:44:58.222Z,151.2077
2023-05-25T12:46:00.828Z,144.9385
2023-05-25T12:47:03.385Z,140.3692
2023-05-25T12:48:06.015Z,143.2538
2023-05-25T12:49:08.502Z,138.8077
2023-05-25T12:50:11.083Z,136.1923
2023-05-25T12:51:13.663Z,155.1846
2023-05-25T12:52:16.229Z,166.7308
2023-05-25T12:53:19.075Z,160.8769
2023-05-25T12:54:21.359Z,149.6154
2023-05-25T12:55:23.970Z,143.6538
2023-05-25T12:56:26.527Z,150.0154
2023-05-25T12:57:41.578Z,172.9538
2023-05-25T12:58:40.623Z,196.4818
2023-05-25T12:59:34.278Z,208.7833
2023-05-25T13:00:36.841Z,226.8461
2023-05-25T13:01:39.482Z,205.0538
2023-05-25T13:02:42.026Z,175.8923
2023-05-25T13:03:44.597Z,164.6923
2023-05-25T13:04:47.122Z,161.7846
2023-05-25T13:05:49.813Z,161.9154
2023-05-25T13:06:52.260Z,152.1615
2023-05-25T13:07:54.868Z,153.6231
2023-05-25T13:08:57.444Z,148.9231
2023-05-25T13:10:00.010Z,146.9769
2023-05-25T13:11:02.571Z,144.1461
2023-05-25T13:12:05.165Z,147.0923
2023-05-25T13:13:07.739Z,161.9385
2023-05-25T13:14:10.328Z,163.1231
2023-05-25T13:15:12.887Z,159.1308
2023-05-25T13:16:15.491Z,188.2769
2023-05-25T13:17:18.030Z,262.6385
2023-05-25T13:18:20.636Z,259.1077
2023-05-25T13:19:23.199Z,209.9231
2023-05-25T13:20:25.808Z,187.0154
2023-05-25T13:21:28.359Z,191.0615
2023-05-25T13:22:30.911Z,204.9154
2023-05-25T13:23:33.483Z,209.1308
2023-05-25T13:24:36.118Z,188.8000
2023-05-25T13:25:38.621Z,180.8154
2023-05-25T13:26:41.205Z,173.2462
2023-05-25T13:27:43.781Z,169.6385
2023-05-25T13:28:46.348Z,180.3077
2023-05-25T13:29:48.961Z,185.3539
2023-05-25T13:30:51.498Z,179.1077
2023-05-25T13:31:54.183Z,198.9385
2023-05-25T13:32:56.670Z,218.7846
2023-05-25T13:33:59.227Z,194.5769
2023-05-25T13:35:01.843Z,203.1077
2023-05-25T13:36:04.373Z,203.6461
2023-05-25T13:37:06.948Z,184.3154
2023-05-25T13:38:09.501Z,226.0231
2023-05-25T13:39:12.107Z,231.3461
2023-05-25T13:40:14.667Z,220.8308
2023-05-25T13:41:17.258Z,187.4154
2023-05-25T13:42:19.803Z,180.7923
2023-05-25T13:43:22.406Z,173.6538
2023-05-25T13:44:24.951Z,170.7000
2023-05-25T13:45:27.597Z,172.2308
2023-05-25T13:46:35.234Z,172.8231
2023-05-25T13:47:33.830Z,190.5154
2023-05-25T13:48:35.301Z,171.9923
2023-05-25T13:49:37.820Z,167.1846
2023-05-25T13:50:40.411Z,182.3308
2023-05-25T13:51:43.014Z,191.6769
2023-05-25T13:52:45.526Z,204.9769
2023-05-25T13:53:48.132Z,201.8846
2023-05-25T13:54:50.693Z,235.7462
2023-05-25T13:55:53.291Z,202.9692
2023-05-25T13:56:55.831Z,188.8462
2023-05-25T13:57:58.405Z,174.4154
2023-05-25T13:59:00.996Z,166.6923
2023-05-25T14:00:03.651Z,170.9308
2023-05-25T14:01:06.183Z,157.0385
2023-05-25T14:02:08.806Z,151.3923
2023-05-25T14:03:11.339Z,136.0308
2023-05-25T14:04:13.845Z,133.4538
2023-05-25T14:05:16.410Z,120.7538
2023-05-25T14:06:19.008Z,109.5538
2023-05-25T14:07:21.571Z,86.9615
2023-05-25T14:08:24.181Z,86.7308
2023-05-25T14:09:26.715Z,70.8846
2023-05-25T14:10:29.506Z,68.3154
2023-05-25T14:11:32.004Z,47.9308
2023-05-25T14:12:34.551Z,68.3231
2023-05-25T14:13:37.003Z,60.1308
2023-05-25T14:14:39.611Z,55.5385
2023-05-25T14:15:42.337Z,43.2615
2023-05-25T14:16:45.227Z,45.1077
2023-05-25T14:17:47.348Z,53.5154
2023-05-25T14:18:49.895Z,65.8846
2023-05-25T14:19:52.462Z,75.5385
2023-05-25T14:20:55.230Z,61.4846
2023-05-25T14:22:11.947Z,50.6077
2023-05-25T14:23:01.212Z,39.2692
2023-05-25T14:24:02.776Z,38.0000
2023-05-25T14:25:05.380Z,34.8769
2023-05-25T14:26:07.943Z,33.7385
2023-05-25T14:27:10.534Z,29.9769
2023-05-25T14:28:13.119Z,25.1615
2023-05-25T14:29:15.697Z,21.2308
2023-05-25T14:30:18.239Z,21.7000
2023-05-25T14:31:20.935Z,33.0769
2023-05-25T14:32:23.467Z,32.3231
2023-05-25T14:33:25.975Z,30.3154
2023-05-25T14:34:28.581Z,27.0154
2023-05-25T14:35:31.140Z,34.9769
2023-05-25T14:36:33.692Z,38.7000
2023-05-25T14:37:36.309Z,46.2000
2023-05-25T14:38:38.852Z,38.2615
2023-05-25T14:39:41.439Z,29.6846
2023-05-25T14:40:44.026Z,28.5923
2023-05-25T14:41:46.604Z,24.4692
2023-05-25T14:42:49.707Z,25.1615
2023-05-25T14:43:51.740Z,24.6923
2023-05-25T14:44:54.331Z,30.4538
2023-05-25T14:45:56.911Z,24.0923
2023-05-25T14:46:59.495Z,21.3769
2023-05-25T14:48:15.325Z,18.9538
2023-05-25T14:49:05.650Z,19.6769
2023-05-25T14:50:07.224Z,19.5154
2023-05-25T14:51:09.761Z,36.1692
2023-05-25T14:52:12.398Z,31.2000
2023-05-25T14:53:15.196Z,20.1692
2023-05-25T14:54:17.519Z,20.9154
2023-05-25T14:55:20.095Z,21.2615
2023-05-25T14:56:22.671Z,22.4462
2023-05-25T14:57:25.254Z,23.4154
2023-05-25T14:58:27.859Z,24.0615
2023-05-25T14:59:30.476Z,24.5692
2023-05-25T15:00:32.981Z,23.3538
2023-05-25T15:01:35.602Z,24.2846
2023-05-25T15:02:38.264Z,22.6385
2023-05-25T15:03:40.846Z,21.1077
2023-05-25T15:04:43.314Z,21.1077
2023-05-25T15:05:46.066Z,20.3923
2023-05-25T15:06:48.471Z,22.7769
2023-05-25T15:07:51.031Z,20.1615
2023-05-25T15:08:53.692Z,64.9385
2023-05-25T15:09:56.211Z,32.8462
2023-05-25T15:10:58.779Z,27.9692
2023-05-25T15:12:01.350Z,23.2692
2023-05-25T15:13:03.965Z,20.3615
2023-05-25T15:14:06.514Z,18.2692
2023-05-25T15:15:09.063Z,15.9462
2023-05-25T15:16:11.753Z,15.2846
2023-05-25T15:17:14.250Z,16.2077
2023-05-25T15:18:16.819Z,20.0769
2023-05-25T15:19:19.426Z,20.7538
2023-05-25T15:20:22.025Z,28.0923
2023-05-25T15:21:24.547Z,33.0846
2023-05-25T15:22:27.126Z,32.9385
2023-05-25T15:23:29.713Z,35.4231
2023-05-25T15:24:32.333Z,36.5846
2023-05-25T15:25:35.777Z,38.0385
2023-05-25T15:26:37.439Z,42.8462
2023-05-25T15:27:40.053Z,49.0231
2023-05-25T15:28:42.587Z,43.9077
2023-05-25T15:29:45.207Z,41.8846
2023-05-25T15:30:47.780Z,41.7462
2023-05-25T15:31:50.361Z,43.1923
2023-05-25T15:32:52.969Z,44.1769
2023-05-25T15:33:58.685Z,46.0462
2023-05-25T15:34:58.098Z,69.7846
2023-05-25T15:36:00.646Z,101.1308
2023-05-25T15:37:03.251Z,75.7923
2023-05-25T15:38:05.819Z,56.0846
2023-05-25T15:39:08.379Z,55.0385
2023-05-25T15:40:11.001Z,52.5231
2023-05-25T15:41:13.556Z,51.9846
2023-05-25T15:42:16.109Z,54.4000
2023-05-25T15:43:18.710Z,53.2846
2023-05-25T15:44:21.320Z,53.8615
2023-05-25T15:45:23.874Z,61.9154
2023-05-25T15:46:26.515Z,65.9769
2023-05-25T15:47:29.047Z,78.5462
2023-05-25T15:48:31.597Z,77.5308
2023-05-25T15:49:34.173Z,69.7769
2023-05-25T15:50:36.761Z,69.0154
2023-05-25T15:51:39.350Z,66.2077
2023-05-25T15:52:41.907Z,61.5692
2023-05-25T15:53:44.528Z,60.4231
2023-05-25T15:54:47.075Z,63.3308
2023-05-25T15:55:49.665Z,61.5846
2023-05-25T15:56:52.208Z,70.9846
2023-05-25T15:57:54.815Z,107.9154
2023-05-25T15:58:57.395Z,124.1077
2023-05-25T15:59:59.962Z,96.9000
2023-05-25T16:01:02.565Z,86.1538
2023-05-25T16:02:05.192Z,79.2385
2023-05-25T16:03:08.105Z,70.1923
2023-05-25T16:04:10.372Z,75.8231
2023-05-25T16:05:12.853Z,66.7846
2023-05-25T16:06:15.465Z,65.5154
2023-05-25T16:07:18.029Z,70.7077
2023-05-25T16:08:20.621Z,64.6000
2023-05-25T16:09:23.170Z,66.3000
2023-05-25T16:10:25.818Z,63.7923
2023-05-25T16:11:28.392Z,68.2692
2023-05-25T16:12:30.939Z,67.6462
2023-05-25T16:13:33.502Z,68.7077
2023-05-25T16:14:36.103Z,68.0769
2023-05-25T16:15:38.687Z,74.8231
2023-05-25T16:16:41.348Z,100.3231
2023-05-25T16:17:43.832Z,98.7385
2023-05-25T16:18:46.459Z,105.5769
2023-05-25T16:19:49.020Z,98.6462
2023-05-25T16:20:51.615Z,76.4385
2023-05-25T16:21:54.215Z,69.4462
2023-05-25T16:22:56.778Z,68.8615
2023-05-25T16:23:59.391Z,70.0615
2023-05-25T16:25:01.994Z,69.7077
2023-05-25T16:26:04.572Z,71.2077
2023-05-25T16:27:07.208Z,71.6769
2023-05-25T16:28:09.723Z,72.5769
2023-05-25T16:29:12.329Z,67.7385
2023-05-25T16:30:14.922Z,68.1923
2023-05-25T16:31:17.547Z,70.6154
2023-05-25T16:32:20.123Z,74.1692
2023-05-25T16:33:22.625Z,95.5077
2023-05-25T16:34:25.209Z,99.5923
2023-05-25T16:35:27.773Z,83.7923
2023-05-25T16:36:30.394Z,71.8077
2023-05-25T16:37:32.967Z,67.9692
2023-05-25T16:38:35.521Z,70.7385
2023-05-25T16:39:38.101Z,69.7077
2023-05-25T16:40:40.690Z,76.8000
2023-05-25T16:41:43.264Z,81.2231
2023-05-25T16:42:45.836Z,81.8769
2023-05-25T16:43:48.431Z,84.1615
2023-05-25T16:44:51.001Z,84.0231
2023-05-25T16:45:53.607Z,80.7692
2023-05-25T16:46:56.156Z,80.4769
2023-05-25T16:47:58.802Z,83.8538
2023-05-25T16:49:01.308Z,82.1538
2023-05-25T16:50:03.925Z,82.9462
2023-05-25T16:51:06.484Z,83.4385
2023-05-25T16:52:09.058Z,87.4154
2023-05-25T16:53:11.723Z,87.4615
2023-05-25T16:54:14.226Z,89.8154
2023-05-25T16:55:16.813Z,91.2692
2023-05-25T16:56:19.415Z,89.4077
2023-05-25T16:57:21.987Z,90.5231
2023-05-25T16:58:24.570Z,96.4308
2023-05-25T16:59:27.135Z,98.3308
2023-05-25T17:00:29.710Z,95.1231
2023-05-25T17:01:32.346Z,99.2615
2023-05-25T17:02:34.982Z,99.3692
2023-05-25T17:03:37.555Z,99.9000
2023-05-25T17:04:40.047Z,101.4846
2023-05-25T17:05:42.775Z,100.9154
2023-05-25T17:06:45.242Z,98.9154
2023-05-25T17:07:47.806Z,100.7154
2023-05-25T17:08:50.394Z,77.2308
2023-05-25T17:09:52.941Z,73.3000
2023-05-25T17:10:55.541Z,72.3615
2023-05-25T17:11:58.100Z,80.1231
2023-05-25T17:13:00.684Z,74.8692
2023-05-25T17:14:03.272Z,71.3000
2023-05-25T17:15:05.856Z,65.2077
2023-05-25T17:16:08.475Z,64.8308
2023-05-25T17:17:11.022Z,67.4385
2023-05-25T17:18:13.632Z,70.8923
2023-05-25T17:19:16.220Z,67.0231
2023-05-25T17:20:18.816Z,57.5846
2023-05-25T17:21:21.358Z,48.7769
2023-05-25T17:22:23.925Z,55.5231
2023-05-25T17:23:26.547Z,64.8308
2023-05-25T17:24:29.148Z,56.3846
2023-05-25T17:25:33.940Z,45.6385
2023-05-25T17:26:34.260Z,38.9692
2023-05-25T17:27:36.858Z,44.6462
2023-05-25T17:28:39.422Z,43.8769
2023-05-25T17:29:42.060Z,46.2385
2023-05-25T17:30:44.565Z,42.9538
2023-05-25T17:31:48.652Z,41.3154
2023-05-25T17:32:49.811Z,42.2692
2023-05-25T17:33:52.315Z,40.1308
2023-05-25T17:34:54.921Z,42.4231
2023-05-25T17:35:57.482Z,43.6231
2023-05-25T17:37:00.044Z,36.8308
2023-05-25T17:38:02.651Z,39.1769
2023-05-25T17:39:05.205Z,38.8385
2023-05-25T17:40:07.836Z,40.0462
2023-05-25T17:41:10.357Z,40.7154
2023-05-25T17:42:12.968Z,44.1538
2023-05-25T17:43:15.529Z,46.1538
2023-05-25T17:44:18.127Z,49.3308
2023-05-25T17:45:20.736Z,46.1615
2023-05-25T17:46:23.338Z,46.5769
2023-05-25T17:47:25.895Z,48.0154
2023-05-25T17:48:28.454Z,48.7231
2023-05-25T17:49:31.017Z,52.3154
2023-05-25T17:50:33.627Z,51.6385
2023-05-25T17:51:36.200Z,52.6077
2023-05-25T17:52:38.774Z,53.5385
2023-05-25T17:53:41.326Z,54.5538
2023-05-25T17:54:43.947Z,56.7769
2023-05-25T17:55:46.665Z,59.8846
2023-05-25T17:56:49.073Z,59.1000
2023-05-25T17:57:51.684Z,64.2462
2023-05-25T17:58:54.237Z,64.5154
2023-05-25T17:59:56.801Z,65.1077
2023-05-25T18:00:59.546Z,63.1308
2023-05-25T18:02:02.001Z,64.8077
2023-05-25T18:03:04.678Z,65.6769
2023-05-25T18:04:07.202Z,66.6769
2023-05-25T18:05:09.715Z,69.5692
2023-05-25T18:06:12.301Z,69.9923
2023-05-25T18:07:14.896Z,74.2769
2023-05-25T18:08:17.457Z,74.5154
2023-05-25T18:09:20.040Z,75.0385
2023-05-25T18:10:22.613Z,75.1385
2023-05-25T18:11:25.220Z,73.5231
2023-05-25T18:12:27.777Z,74.8385
2023-05-25T18:13:30.407Z,73.0308
2023-05-25T18:14:32.931Z,73.7000
2023-05-25T18:15:35.522Z,72.6538
2023-05-25T18:16:38.172Z,75.1000
2023-05-25T18:17:40.693Z,77.4385
2023-05-25T18:18:43.252Z,76.4308
2023-05-25T18:19:45.857Z,80.1538
2023-05-25T18:20:48.487Z,81.9462
2023-05-25T18:21:51.299Z,79.4154
2023-05-25T18:22:53.568Z,77.3692
2023-05-25T18:23:56.172Z,79.0231
2023-05-25T18:24:58.747Z,79.7462
2023-05-25T18:26:01.336Z,80.6615
2023-05-25T18:27:04.388Z,81.5615
2023-05-25T18:28:06.548Z,82.5615
2023-05-25T18:29:09.074Z,80.6231
2023-05-25T18:30:11.687Z,79.6462
2023-05-25T18:31:14.238Z,81.6385
2023-05-25T18:32:16.842Z,80.6077
2023-05-25T18:33:19.396Z,80.2308
2023-05-25T18:34:21.951Z,80.5846
2023-05-25T18:35:24.529Z,81.2923
2023-05-25T18:36:27.127Z,83.7000
2023-05-25T18:37:29.743Z,82.1769
2023-05-25T18:38:32.280Z,82.6462
2023-05-25T18:39:34.842Z,82.1692
2023-05-25T18:40:37.447Z,82.0923
2023-05-25T18:41:40.002Z,82.9769
2023-05-25T18:42:42.658Z,81.5846
2023-05-25T18:43:45.168Z,81.9154
2023-05-25T18:44:47.766Z,79.3846
2023-05-25T18:45:50.312Z,78.4077
2023-05-25T18:46:52.999Z,77.5000
2023-05-25T18:47:55.579Z,76.3538
2023-05-25T18:48:58.114Z,76.2385
2023-05-25T18:50:00.672Z,75.5923
2023-05-25T18:51:03.243Z,76.5615
2023-05-25T18:52:05.854Z,78.2846
2023-05-25T18:53:08.421Z,77.2462
2023-05-25T18:54:10.959Z,81.5308
2023-05-25T18:55:13.559Z,81.7538
2023-05-25T18:56:16.132Z,79.8308
2023-05-25T18:57:18.792Z,80.1923
2023-05-25T18:58:21.312Z,79.4769
2023-05-25T18:59:23.879Z,80.1692
2023-05-25T19:00:26.435Z,79.8846
2023-05-25T19:01:29.055Z,80.7923
2023-05-25T19:02:31.745Z,78.1846
2023-05-25T19:03:34.283Z,80.6308
2023-05-25T19:04:36.762Z,89.8846
2023-05-25T19:05:39.354Z,98.1538
2023-05-25T19:06:41.943Z,91.9462
2023-05-25T19:07:58.289Z,90.0615
2023-05-25T19:08:48.078Z,87.6846
2023-05-25T19:09:49.669Z,86.4000
2023-05-25T19:10:52.236Z,85.0846
2023-05-25T19:11:54.849Z,83.3692
2023-05-25T19:12:57.427Z,84.1462
2023-05-25T19:14:00.020Z,85.2231
2023-05-25T19:15:02.559Z,83.7692
2023-05-25T19:16:05.174Z,81.8308
2023-05-25T19:17:07.723Z,82.3000
2023-05-25T19:18:10.328Z,82.4846
2023-05-25T19:19:12.906Z,82.2231
2023-05-25T19:20:15.574Z,82.6231
2023-05-25T19:21:18.047Z,83.0846
2023-05-25T19:22:20.652Z,82.3231
2023-05-25T19:23:23.226Z,82.2923
2023-05-25T19:24:25.852Z,80.7692
2023-05-25T19:25:28.378Z,80.8154
2023-05-25T19:26:30.974Z,81.2385
2023-05-25T19:27:33.557Z,82.7077
2023-05-25T19:28:36.118Z,81.0077
2023-05-25T19:29:38.709Z,81.5615
2023-05-25T19:30:41.287Z,81.1923
2023-05-25T19:31:43.892Z,81.3000
2023-05-25T19:32:46.485Z,81.3846
2023-05-25T19:33:49.017Z,81.1077
2023-05-25T19:34:51.636Z,81.2538
2023-05-25T19:35:54.182Z,79.4692
2023-05-25T19:37:07.441Z,80.2538
2023-05-25T19:38:01.901Z,81.2538
2023-05-25T19:39:01.942Z,80.6692
2023-05-25T19:40:04.516Z,81.6923
2023-05-25T19:41:07.099Z,82.4846
2023-05-25T19:42:09.680Z,84.2231
2023-05-25T19:43:12.264Z,87.6846
2023-05-25T19:44:14.846Z,99.0385
2023-05-25T19:45:17.824Z,97.9000
2023-05-25T19:46:20.083Z,89.6692
2023-05-25T19:47:22.591Z,90.8231
2023-05-25T19:48:25.292Z,89.4077
2023-05-25T19:49:27.732Z,88.7000
2023-05-25T19:50:30.332Z,87.8154
2023-05-25T19:51:32.905Z,89.2615
2023-05-25T19:52:35.493Z,88.3154
2023-05-25T19:53:38.067Z,88.8308
2023-05-25T19:54:40.636Z,89.8692
2023-05-25T19:55:43.676Z,88.3000
2023-05-25T19:56:45.790Z,88.6923
2023-05-25T19:57:48.401Z,93.3000
2023-05-25T19:58:50.959Z,94.1077
2023-05-25T19:59:53.548Z,98.1308
2023-05-25T20:00:56.194Z,98.8077
2023-05-25T20:01:58.731Z,98.1769
2023-05-25T20:03:01.402Z,109.2923
2023-05-25T20:04:03.867Z,120.9154
2023-05-25T20:05:06.463Z,114.1308
2023-05-25T20:06:09.324Z,119.0846
2023-05-25T20:07:11.611Z,142.7538
2023-05-25T20:08:14.188Z,124.3000
2023-05-25T20:09:16.776Z,116.8077
2023-05-25T20:10:19.353Z,114.6538
2023-05-25T20:11:21.936Z,120.0615
2023-05-25T20:12:24.517Z,133.2769
2023-05-25T20:13:27.103Z,117.6462
2023-05-25T20:14:29.662Z,130.8154
2023-05-25T20:15:32.265Z,132.6538
2023-05-25T20:16:35.004Z,140.2538
2023-05-25T20:17:37.467Z,143.6308
2023-05-25T20:18:39.984Z,134.7615
2023-05-25T20:19:42.606Z,131.5769
2023-05-25T20:20:45.318Z,127.5692
2023-05-25T20:21:47.774Z,124.7769
2023-05-25T20:22:50.356Z,125.7462
2023-05-25T20:23:52.921Z,126.0692
2023-05-25T20:24:55.503Z,130.6077
2023-05-25T20:25:58.104Z,132.9692
2023-05-25T20:27:00.663Z,129.7000
2023-05-25T20:28:03.244Z,126.8231
2023-05-25T20:29:05.826Z,127.1846
2023-05-25T20:30:08.483Z,128.4615
2023-05-25T20:31:11.041Z,127.6308
2023-05-25T20:32:13.784Z,128.0692
2023-05-25T20:33:16.214Z,129.2923
2023-05-25T20:34:18.864Z,126.8154
2023-05-25T20:35:21.392Z,126.6692
2023-05-25T20:36:23.971Z,127.5615